Time;durP1;ratioP1;P1;durP2;ratioP2;P2;SDS_P1;SDS_P2;PMS_P1;PMS_P2;Temp;Humidity;BMP_temperature;BMP_pressure;BME280_temperature;BME280_humidity;BME280_pressure;Samples;Min_cycle;Max_cycle;Signal;HPM_P1;HPM_P2
2023/02/27 02:31:59;;;;;;;5.35;2.60;;;;;;;3.12;91.81;98112.41;5022731;28;20118;-63
2023/02/27 02:35:02;;;;;;;5.40;2.40;;;;;;;3.11;91.53;98117.66;5052166;28;20128;-63
2023/02/27 02:37:46;;;;;;;4.60;2.30;;;;;;;3.06;92.35;98116.19;5066515;28;20081;-62
2023/02/27 02:40:43;;;;;;;4.70;2.63;;;;;;;3.11;91.85;98118.47;5072075;28;20036;-62
2023/02/27 02:43:12;;;;;;;5.40;2.42;;;;;;;3.10;91.86;98121.13;5067322;28;20028;-61
2023/02/27 02:46:01;;;;;;;4.80;2.67;;;;;;;3.18;91.57;98122.22;5064121;28;20058;-63
2023/02/27 02:48:43;;;;;;;6.43;2.30;;;;;;;2.90;91.23;98092.53;5064492;28;20111;-62
2023/02/27 02:51:11;;;;;;;4.70;2.20;;;;;;;3.14;90.17;98131.09;5039639;28;20043;-62
2023/02/27 02:53:40;;;;;;;5.22;2.30;;;;;;;2.98;91.13;98121.09;5073833;28;20035;-61
2023/02/27 02:56:20;;;;;;;4.20;1.90;;;;;;;3.23;89.53;98132.16;5051818;28;20370;-61
2023/02/27 02:59:08;;;;;;;4.07;1.90;;;;;;;2.96;90.31;98107.53;5062079;28;20119;-62
2023/02/27 03:01:38;;;;;;;4.28;2.28;;;;;;;3.12;90.17;98140.66;5050724;28;20039;-63
2023/02/27 03:04:12;;;;;;;4.10;1.80;;;;;;;3.06;90.16;98131.63;5053728;28;20039;-62
2023/02/27 03:06:53;;;;;;;3.97;1.95;;;;;;;3.08;90.74;98145.19;5049991;28;20046;-62
2023/02/27 03:09:27;;;;;;;4.68;1.98;;;;;;;2.47;90.26;98060.44;5059668;28;20795;-62
2023/02/27 03:11:54;;;;;;;4.82;2.00;;;;;;;3.00;90.49;98151.78;5063147;28;20074;-62
2023/02/27 03:14:26;;;;;;;3.78;1.92;;;;;;;3.13;89.41;98151.75;5058973;28;20051;-62
2023/02/27 03:16:53;;;;;;;5.03;2.20;;;;;;;3.08;89.65;98162.34;5050160;28;21142;-63
2023/02/27 03:19:26;;;;;;;4.65;2.30;;;;;;;3.12;88.90;98161.22;5027577;28;20168;-62
2023/02/27 03:21:59;;;;;;;4.40;2.00;;;;;;;3.32;88.77;98161.53;5054389;28;20109;-62
2023/02/27 03:24:31;;;;;;;4.15;1.92;;;;;;;3.32;88.41;98176.94;5039834;28;20034;-62
2023/02/27 03:27:01;;;;;;;4.68;2.00;;;;;;;3.29;87.82;98178.00;5053188;28;20038;-63
2023/02/27 03:29:32;;;;;;;4.30;1.95;;;;;;;3.27;89.52;98179.84;5057330;28;20559;-62
2023/02/27 03:32:07;;;;;;;4.90;2.22;;;;;;;3.15;90.54;98178.97;5048388;28;20099;-62
2023/02/27 03:34:34;;;;;;;5.50;2.30;;;;;;;3.13;91.05;98188.53;5042483;28;20016;-62
2023/02/27 03:37:24;;;;;;;4.32;2.20;;;;;;;2.86;91.07;98145.88;5032440;28;20036;-63
2023/02/27 03:40:08;;;;;;;5.10;2.60;;;;;;;3.24;90.95;98198.06;5053725;28;20082;-62
2023/02/27 03:42:35;;;;;;;4.80;2.22;;;;;;;3.12;91.13;98186.06;5056844;28;20038;-62
2023/02/27 03:45:14;;;;;;;4.88;2.25;;;;;;;2.82;91.13;98129.03;5033648;28;20031;-62
2023/02/27 03:47:39;;;;;;;4.28;2.25;;;;;;;3.34;90.28;98203.34;5069819;28;20035;-63
2023/02/27 03:50:05;;;;;;;3.90;1.92;;;;;;;3.21;90.54;98204.25;5053713;28;20113;-62
2023/02/27 03:52:31;;;;;;;5.28;2.63;;;;;;;3.17;91.26;98201.97;5071173;28;20036;-62
2023/02/27 03:55:10;;;;;;;4.93;2.33;;;;;;;3.17;91.89;98205.34;5027024;28;20039;-62
2023/02/27 03:57:36;;;;;;;4.95;2.55;;;;;;;2.73;92.29;98151.97;5036713;28;20032;-61
2023/02/27 04:00:04;;;;;;;4.75;2.50;;;;;;;3.21;92.42;98209.38;5048216;28;20411;-61
2023/02/27 04:02:31;;;;;;;4.50;2.40;;;;;;;3.27;92.06;98211.50;5039876;28;20036;-62
2023/02/27 04:04:56;;;;;;;6.57;2.80;;;;;;;3.25;91.92;98205.66;5051693;28;20032;-62
2023/02/27 04:07:56;;;;;;;4.60;2.42;;;;;;;2.98;92.47;98169.88;5050791;28;20517;-62
2023/02/27 04:10:39;;;;;;;5.40;2.80;;;;;;;3.19;92.99;98216.34;5068353;28;20032;-61
2023/02/27 04:13:30;;;;;;;5.10;2.63;;;;;;;3.33;92.34;98219.72;5059883;28;20771;-62
2023/02/27 04:16:21;;;;;;;5.30;2.97;;;;;;;3.30;93.00;98217.34;5066200;28;20397;-63
2023/02/27 04:19:19;;;;;;;4.45;2.42;;;;;;;3.16;93.62;98188.31;5050010;28;20850;-61
2023/02/27 04:21:54;;;;;;;6.53;2.90;;;;;;;3.36;93.04;98222.03;5045391;28;20143;-62
2023/02/27 04:24:29;;;;;;;5.70;2.78;;;;;;;3.24;93.63;98209.16;5065956;28;20157;-62
2023/02/27 04:27:04;;;;;;;6.50;2.90;;;;;;;3.39;93.33;98226.97;5046692;28;20031;-60
2023/02/27 04:29:56;;;;;;;4.47;2.47;;;;;;;3.28;93.17;98225.16;5067065;28;20028;-62
2023/02/27 04:32:32;;;;;;;4.80;2.45;;;;;;;3.25;93.21;98225.41;5041603;28;20044;-62
2023/02/27 04:35:05;;;;;;;6.10;2.75;;;;;;;3.26;94.16;98224.44;5048134;28;20114;-62
2023/02/27 04:37:42;;;;;;;5.15;2.65;;;;;;;3.35;93.60;98228.94;5038770;28;20535;-62
2023/02/27 04:40:11;;;;;;;5.40;2.72;;;;;;;3.32;94.20;98228.34;5055820;28;20096;-62
2023/02/27 04:42:40;;;;;;;5.15;2.72;;;;;;;3.29;93.87;98231.16;5052167;28;20033;-62
2023/02/27 04:45:13;;;;;;;5.68;3.17;;;;;;;3.30;93.54;98220.72;5061945;28;20060;-63
2023/02/27 04:47:48;;;;;;;5.47;2.80;;;;;;;3.18;94.37;98224.19;5050813;28;20412;-63
2023/02/27 04:50:44;;;;;;;6.15;2.55;;;;;;;3.17;93.69;98230.25;5056900;28;20021;-63
2023/02/27 04:53:19;;;;;;;5.45;1.70;;;;;;;2.65;81.33;98222.63;5028647;28;20044;-62
2023/02/27 04:55:59;;;;;;;3.00;1.30;;;;;;;2.65;74.55;98225.22;5050959;28;20175;-63
2023/02/27 04:58:29;;;;;;;3.50;1.50;;;;;;;2.46;75.16;98238.47;5041518;28;20032;-62
2023/02/27 05:01:03;;;;;;;4.00;1.50;;;;;;;2.39;74.78;98232.09;5054216;28;20025;-63
2023/02/27 05:03:34;;;;;;;3.13;1.20;;;;;;;2.44;74.16;98227.47;5053351;28;20066;-61
2023/02/27 05:06:01;;;;;;;4.07;1.50;;;;;;;2.23;74.19;98203.25;5052579;28;20067;-63
2023/02/27 05:08:48;;;;;;;3.67;1.40;;;;;;;2.04;73.85;98173.69;5043207;28;20098;-63
2023/02/27 05:11:37;;;;;;;4.55;1.23;;;;;;;1.94;73.58;98167.53;5063639;28;20016;-62
2023/02/27 05:14:11;;;;;;;3.50;1.40;;;;;;;2.31;72.67;98226.66;5055954;28;20119;-62
2023/02/27 05:16:55;;;;;;;2.92;1.23;;;;;;;2.29;71.68;98234.44;5068110;28;20032;-63
2023/02/27 05:19:20;;;;;;;2.55;1.00;;;;;;;2.26;71.92;98229.53;5036728;28;20062;-62
2023/02/27 05:22:09;;;;;;;3.38;1.35;;;;;;;1.92;72.96;98177.06;5047290;28;20986;-61
2023/02/27 05:24:55;;;;;;;2.97;1.33;;;;;;;2.25;73.64;98235.56;5071175;28;20077;-63
2023/02/27 05:27:48;;;;;;;4.25;1.50;;;;;;;2.33;73.28;98226.56;5051043;28;20114;-61
2023/02/27 05:30:17;;;;;;;3.90;1.13;;;;;;;2.37;72.23;98231.34;5049798;28;20118;-61
2023/02/27 05:32:46;;;;;;;2.75;1.00;;;;;;;2.46;71.87;98222.22;5071242;28;20472;-61
2023/02/27 05:35:18;;;;;;;;;;;;;;;2.48;71.98;98239.19;5058480;28;20024;-62
2023/02/27 05:38:18;;;;;;;2.15;0.93;;;;;;;2.49;70.58;98230.53;5044999;28;20723;-61
2023/02/27 05:40:50;;;;;;;3.78;1.38;;;;;;;2.45;70.04;98226.56;5039449;28;20048;-61
2023/02/27 05:43:19;;;;;;;6.38;1.17;;;;;;;2.50;69.03;98227.06;5055284;28;20119;-61
2023/02/27 05:45:47;;;;;;;3.47;1.20;;;;;;;2.13;68.59;98161.19;5058231;28;20024;-62
2023/02/27 05:48:25;;;;;;;3.58;1.13;;;;;;;2.53;67.19;98227.78;5069585;28;20028;-63
2023/02/27 05:50:51;;;;;;;2.58;1.00;;;;;;;2.55;67.05;98236.19;5057120;28;20035;-62
2023/02/27 05:53:20;;;;;;;3.28;1.30;;;;;;;2.58;66.86;98236.81;5049511;28;20036;-63
2023/02/27 05:55:57;;;;;;;3.40;1.10;;;;;;;2.58;67.38;98229.09;5050814;28;20031;-63
2023/02/27 05:58:34;;;;;;;2.55;0.93;;;;;;;2.47;67.91;98201.59;5027583;28;20862;-62
2023/02/27 06:01:05;;;;;;;3.70;1.00;;;;;;;2.69;69.13;98249.75;5056825;28;20028;-62
2023/02/27 06:03:32;;;;;;;6.40;1.17;;;;;;;2.70;68.83;98240.28;5047524;28;20735;-63
2023/02/27 06:05:59;;;;;;;3.33;1.20;;;;;;;2.64;70.52;98238.94;5058485;28;20032;-61
2023/02/27 06:08:25;;;;;;;3.10;1.30;;;;;;;2.63;70.47;98236.50;5052216;28;20130;-62
2023/02/27 06:10:50;;;;;;;2.97;1.13;;;;;;;2.73;72.18;98250.34;5074979;28;20031;-64
2023/02/27 06:13:17;;;;;;;3.72;1.38;;;;;;;2.64;71.77;98244.09;5047426;28;20405;-63
2023/02/27 06:15:43;;;;;;;3.97;1.30;;;;;;;2.73;72.78;98252.09;5055871;28;20122;-63
2023/02/27 06:18:10;;;;;;;5.65;1.63;;;;;;;2.76;74.09;98260.44;5064829;28;20039;-60
2023/02/27 06:20:35;;;;;;;4.18;1.70;;;;;;;2.70;72.68;98263.38;5051538;28;20368;-63
2023/02/27 06:23:01;;;;;;;4.80;1.80;;;;;;;2.41;71.43;98214.84;5075029;28;20131;-62
2023/02/27 06:25:26;;;;;;;3.83;1.50;;;;;;;2.65;69.99;98258.56;5066581;28;20039;-63
2023/02/27 06:27:52;;;;;;;3.42;1.35;;;;;;;2.73;70.63;98264.94;5066976;28;20048;-64
2023/02/27 06:30:18;;;;;;;4.43;1.98;;;;;;;2.55;72.09;98257.53;5065770;28;20060;-63
2023/02/27 06:32:44;;;;;;;3.53;1.38;;;;;;;2.27;74.85;98213.19;5064337;28;20152;-61
2023/02/27 06:35:09;;;;;;;4.00;2.03;;;;;;;2.66;75.47;98275.59;5069095;28;20350;-63
2023/02/27 06:37:35;;;;;;;4.15;1.83;;;;;;;2.63;75.34;98287.84;5055356;28;20085;-61
2023/02/27 06:40:00;;;;;;;3.88;1.77;;;;;;;2.49;76.95;98275.94;5046977;28;20119;-63
2023/02/27 06:42:25;;;;;;;4.00;1.92;;;;;;;2.60;76.79;98285.47;5077459;28;20036;-62
2023/02/27 06:44:51;;;;;;;4.68;2.08;;;;;;;2.63;77.47;98288.66;5066244;28;20104;-62
2023/02/27 06:47:17;;;;;;;4.00;1.83;;;;;;;2.64;79.69;98289.47;5056436;28;20032;-62
2023/02/27 06:49:42;;;;;;;7.63;2.40;;;;;;;2.71;79.94;98300.19;5068465;28;20024;-63
2023/02/27 06:52:08;;;;;;;4.60;2.13;;;;;;;2.41;79.69;98237.09;5060894;28;20511;-63
2023/02/27 06:54:33;;;;;;;4.30;2.00;;;;;;;2.71;78.21;98303.56;5074805;28;20024;-61
2023/02/27 06:56:59;;;;;;;4.15;1.75;;;;;;;2.14;79.71;98209.81;5069831;28;20023;-63
2023/02/27 06:59:24;;;;;;;4.43;2.13;;;;;;;2.48;78.96;98253.75;5060177;28;20601;-61
2023/02/27 07:01:50;;;;;;;6.30;2.75;;;;;;;2.65;81.32;98302.22;5054897;28;20020;-63
2023/02/27 07:04:16;;;;;;;4.22;1.65;;;;;;;2.76;79.13;98311.78;5057932;28;20032;-63
2023/02/27 07:06:41;;;;;;;4.45;2.13;;;;;;;2.67;80.38;98304.69;5028120;28;20038;-63
2023/02/27 07:09:06;;;;;;;5.28;2.42;;;;;;;2.21;80.71;98241.84;5048465;28;20024;-62
2023/02/27 07:11:32;;;;;;;4.60;2.40;;;;;;;2.80;79.22;98317.53;5037706;28;20016;-62
2023/02/27 07:13:57;;;;;;;4.32;2.08;;;;;;;2.37;79.26;98263.91;5055112;28;20807;-63
2023/02/27 07:16:23;;;;;;;5.68;2.05;;;;;;;2.75;79.13;98320.38;5058664;28;20063;-63
2023/02/27 07:18:48;;;;;;;4.95;2.22;;;;;;;2.28;77.87;98252.50;5056503;28;20473;-62
2023/02/27 07:21:16;;;;;;;4.70;1.92;;;;;;;2.70;77.73;98314.72;5054378;28;20078;-64
2023/02/27 07:23:42;;;;;;;4.32;2.00;;;;;;;2.76;77.52;98326.38;5074593;28;20044;-61
2023/02/27 07:26:08;;;;;;;4.63;2.17;;;;;;;2.86;77.25;98330.75;5045541;28;20063;-62
2023/02/27 07:28:33;;;;;;;4.50;1.98;;;;;;;2.80;77.39;98335.50;5071255;28;20027;-62
2023/02/27 07:30:59;;;;;;;4.20;1.88;;;;;;;2.84;75.69;98326.66;5048940;28;20032;-62
2023/02/27 07:33:25;;;;;;;4.57;2.05;;;;;;;2.83;75.52;98336.13;5045177;28;20076;-63
2023/02/27 07:35:50;;;;;;;4.07;1.98;;;;;;;2.80;75.03;98348.34;5057058;28;20020;-63
2023/02/27 07:38:17;;;;;;;4.72;2.00;;;;;;;2.90;75.64;98344.22;5040160;28;20071;-63
2023/02/27 07:40:44;;;;;;;5.88;2.05;;;;;;;2.82;74.90;98341.34;5044896;28;20025;-62
2023/02/27 07:43:09;;;;;;;4.65;1.92;;;;;;;2.61;73.26;98298.22;5045238;28;20038;-62
2023/02/27 07:45:35;;;;;;;4.72;1.65;;;;;;;2.91;72.48;98342.50;5044864;28;20024;-63
2023/02/27 07:48:00;;;;;;;4.18;1.80;;;;;;;2.57;73.12;98295.94;5047408;28;20085;-62
2023/02/27 07:50:26;;;;;;;4.00;1.55;;;;;;;3.02;72.44;98358.00;5053902;28;20013;-63
2023/02/27 07:52:52;;;;;;;5.28;1.60;;;;;;;3.00;69.99;98363.22;5054713;28;20044;-61
2023/02/27 07:55:17;;;;;;;4.00;1.60;;;;;;;3.08;70.65;98370.41;5049313;28;20041;-63
2023/02/27 07:57:44;;;;;;;5.13;1.63;;;;;;;3.12;69.66;98374.44;5054128;28;20032;-63
2023/02/27 08:00:10;;;;;;;3.92;1.50;;;;;;;3.26;70.32;98382.03;5036516;28;20028;-63
2023/02/27 08:02:35;;;;;;;3.70;1.45;;;;;;;3.31;69.59;98381.72;5047107;28;20024;-63
2023/02/27 08:05:01;;;;;;;4.95;1.60;;;;;;;3.31;68.19;98381.72;5046475;28;20024;-61
2023/02/27 08:07:26;;;;;;;3.55;1.40;;;;;;;3.35;69.23;98380.56;5049846;28;20025;-62
2023/02/27 08:09:51;;;;;;;3.47;1.40;;;;;;;3.30;69.23;98364.66;5047966;28;20983;-62
2023/02/27 08:12:17;;;;;;;3.05;1.10;;;;;;;3.51;68.66;98382.13;5051206;28;20370;-63
2023/02/27 08:14:42;;;;;;;3.35;1.30;;;;;;;3.64;67.44;98386.28;5034959;28;20033;-63
2023/02/27 08:17:08;;;;;;;3.45;1.40;;;;;;;3.72;66.88;98397.78;5056775;28;20670;-62
2023/02/27 08:19:33;;;;;;;3.65;1.23;;;;;;;3.54;68.03;98349.31;5041003;28;20044;-63
2023/02/27 08:21:59;;;;;;;2.80;1.20;;;;;;;3.75;65.79;98395.84;5039679;28;20104;-63
2023/02/27 08:24:24;;;;;;;7.05;1.30;;;;;;;3.85;65.31;98394.28;5044690;28;20036;-62
2023/02/27 08:26:50;;;;;;;3.00;1.20;;;;;;;3.90;65.30;98398.25;5056477;28;20059;-61
2023/02/27 08:29:16;;;;;;;4.35;1.27;;;;;;;3.73;64.28;98355.72;5046182;28;20025;-62
2023/02/27 08:31:41;;;;;;;8.13;1.77;;;;;;;4.09;64.91;98410.63;5046191;28;20017;-63
2023/02/27 08:34:07;;;;;;;9.10;2.20;;;;;;;4.07;65.20;98397.06;5033644;28;20139;-62
2023/02/27 08:36:32;;;;;;;8.95;2.70;;;;;;;4.07;72.87;98404.78;5050761;28;20029;-63
2023/02/27 08:38:58;;;;;;;7.78;3.35;;;;;;;4.11;76.47;98413.94;5041877;28;20028;-61
2023/02/27 08:41:23;;;;;;;9.95;3.80;;;;;;;3.90;76.66;98365.63;5054758;28;20029;-62
2023/02/27 08:43:48;;;;;;;9.27;4.05;;;;;;;4.27;76.55;98414.50;5054131;28;20044;-62
2023/02/27 08:46:14;;;;;;;8.20;3.92;;;;;;;4.07;76.07;98381.63;5055196;28;20068;-61
2023/02/27 08:48:41;;;;;;;6.40;3.50;;;;;;;4.26;77.04;98414.59;5053237;28;20136;-61
2023/02/27 08:51:07;;;;;;;7.07;4.70;;;;;;;4.19;79.90;98411.63;5050982;28;20052;-63
2023/02/27 08:53:33;;;;;;;6.43;4.10;;;;;;;4.20;79.21;98421.84;5037691;28;20060;-63
2023/02/27 08:55:58;;;;;;;7.35;3.50;;;;;;;4.20;77.39;98423.59;5055605;28;20924;-62
2023/02/27 08:58:23;;;;;;;6.60;4.00;;;;;;;4.25;79.13;98431.78;5024184;28;20032;-61
2023/02/27 09:00:49;;;;;;;7.45;3.83;;;;;;;4.22;77.65;98427.69;5030833;28;20457;-62
2023/02/27 09:03:14;;;;;;;5.72;3.70;;;;;;;4.38;76.97;98431.72;5043067;28;20567;-63
2023/02/27 09:05:40;;;;;;;6.57;3.80;;;;;;;4.17;77.96;98410.94;5048959;28;20036;-62
2023/02/27 09:08:06;;;;;;;6.68;3.80;;;;;;;3.95;78.06;98380.75;5051954;28;20024;-62
2023/02/27 09:10:31;;;;;;;9.02;3.92;;;;;;;4.22;77.21;98440.56;5044890;28;20099;-61
2023/02/27 09:12:58;;;;;;;7.38;3.60;;;;;;;3.93;78.44;98391.16;5051276;28;20115;-60
2023/02/27 09:15:23;;;;;;;7.80;4.20;;;;;;;3.80;81.41;98390.38;5044010;28;20486;-61
2023/02/27 09:17:49;;;;;;;7.35;4.00;;;;;;;4.19;84.50;98452.81;5053076;28;20028;-62
2023/02/27 09:20:14;;;;;;;18.25;4.90;;;;;;;4.08;85.20;98429.59;5035596;28;20926;-61
2023/02/27 09:22:40;;;;;;;9.43;4.40;;;;;;;4.24;85.25;98453.31;5047737;28;20036;-60
2023/02/27 09:25:06;;;;;;;17.70;4.78;;;;;;;4.16;84.88;98455.59;5033961;28;20521;-61
2023/02/27 09:27:31;;;;;;;35.47;7.07;;;;;;;4.16;82.00;98453.88;5045369;28;20054;-61
2023/02/27 09:29:58;;;;;;;9.93;3.75;;;;;;;4.00;81.09;98402.66;5049324;28;20043;-61
2023/02/27 09:32:25;;;;;;;7.38;3.10;;;;;;;4.33;81.09;98457.00;5055805;28;20076;-61
2023/02/27 09:34:51;;;;;;;7.05;3.25;;;;;;;4.46;80.03;98460.34;5046415;28;20143;-62
2023/02/27 09:37:18;;;;;;;5.85;3.17;;;;;;;4.47;79.82;98453.44;5067089;28;22331;-61
2023/02/27 09:39:43;;;;;;;7.13;3.17;;;;;;;4.42;79.67;98453.78;5059749;28;20105;-61
2023/02/27 09:42:14;;;;;;;6.97;2.55;;;;;;;4.50;78.81;98461.75;5044303;28;20100;-61
2023/02/27 09:44:57;;;;;;;4.88;2.50;;;;;;;4.31;78.50;98451.13;5044522;28;20169;-61
2023/02/27 09:47:24;;;;;;;6.18;2.50;;;;;;;4.43;78.18;98471.69;5047731;28;20020;-61
2023/02/27 09:49:59;;;;;;;4.70;2.40;;;;;;;4.58;77.21;98471.50;5069810;28;20063;-61
2023/02/27 09:52:25;;;;;;;24.35;4.95;;;;;;;4.66;77.37;98478.69;5069307;28;20028;-62
2023/02/27 09:54:50;;;;;;;6.72;2.50;;;;;;;4.61;76.57;98472.09;5073314;28;20028;-61
2023/02/27 09:57:36;;;;;;;31.90;4.53;;;;;;;4.73;76.74;98480.72;5057135;28;20435;-62
2023/02/27 10:00:08;;;;;;;8.55;3.00;;;;;;;4.73;75.73;98479.91;4987865;28;20048;-61
2023/02/27 10:02:43;;;;;;;6.55;3.05;;;;;;;4.80;76.14;98463.88;5036022;28;20028;-61
2023/02/27 10:05:47;;;;;;;6.95;3.40;;;;;;;4.91;76.62;98475.13;5053966;28;20251;-62
2023/02/27 10:08:22;;;;;;;5.80;3.13;;;;;;;4.92;76.93;98472.44;5015601;28;20036;-61
2023/02/27 10:10:59;;;;;;;5.15;3.08;;;;;;;4.89;76.70;98477.84;5070322;28;20028;-61
2023/02/27 10:13:34;;;;;;;6.40;3.55;;;;;;;4.86;77.65;98475.50;5038027;28;20058;-61
2023/02/27 10:16:00;;;;;;;6.40;3.60;;;;;;;4.57;77.68;98424.34;5072388;28;20039;-61
2023/02/27 10:18:32;;;;;;;6.40;3.55;;;;;;;4.70;77.29;98462.09;5070944;28;20039;-61
2023/02/27 10:21:09;;;;;;;7.97;3.67;;;;;;;4.74;77.46;98476.38;5047947;28;20173;-62
2023/02/27 10:23:40;;;;;;;7.05;3.55;;;;;;;4.72;77.53;98466.19;5033771;28;20032;-60
2023/02/27 10:26:12;;;;;;;5.60;3.10;;;;;;;4.82;76.64;98474.91;5043011;28;20033;-61
2023/02/27 10:28:37;;;;;;;5.68;2.80;;;;;;;4.86;75.10;98467.75;5052028;28;20018;-60
2023/02/27 10:31:13;;;;;;;5.93;3.60;;;;;;;4.84;76.08;98459.31;5070644;28;20447;-61
2023/02/27 10:33:41;;;;;;;6.82;3.80;;;;;;;4.93;76.77;98461.22;5044047;28;20151;-61
2023/02/27 10:36:10;;;;;;;6.57;3.72;;;;;;;4.92;77.14;98474.22;5049915;28;20540;-61
2023/02/27 10:38:58;;;;;;;5.35;3.28;;;;;;;4.74;75.52;98443.69;5052802;28;20039;-61
2023/02/27 10:41:24;;;;;;;6.75;3.53;;;;;;;4.65;75.57;98418.63;5049521;28;20024;-61
2023/02/27 10:43:56;;;;;;;9.27;3.95;;;;;;;4.98;76.66;98478.91;5050354;28;20023;-60
2023/02/27 10:46:26;;;;;;;6.70;3.60;;;;;;;5.14;75.81;98474.28;5048533;28;20089;-61
2023/02/27 10:48:52;;;;;;;6.32;3.58;;;;;;;4.94;76.21;98451.75;5051192;28;20220;-63
2023/02/27 10:51:35;;;;;;;6.82;3.58;;;;;;;5.24;75.64;98468.44;5031001;28;21019;-61
2023/02/27 10:54:24;;;;;;;7.13;3.92;;;;;;;5.17;75.63;98483.56;5044110;28;20047;-61
2023/02/27 10:56:52;;;;;;;7.45;4.00;;;;;;;5.24;75.38;98477.00;5049402;28;20032;-60
2023/02/27 10:59:19;;;;;;;7.93;4.57;;;;;;;5.22;76.55;98466.00;5043136;28;20028;-60
2023/02/27 11:01:51;;;;;;;6.70;4.10;;;;;;;5.24;75.56;98452.97;5066592;28;20043;-61
2023/02/27 11:04:35;;;;;;;6.72;3.75;;;;;;;5.36;75.22;98473.50;5060291;28;20040;-61
2023/02/27 11:07:04;;;;;;;5.40;3.47;;;;;;;5.33;75.77;98466.00;5047735;28;20028;-61
2023/02/27 11:09:32;;;;;;;7.28;4.03;;;;;;;5.22;76.48;98463.41;5047622;28;20180;-60
2023/02/27 11:12:27;;;;;;;6.75;4.47;;;;;;;5.03;76.73;98414.16;5033900;28;20051;-61
2023/02/27 11:14:54;;;;;;;8.48;4.40;;;;;;;5.28;77.19;98467.28;5067398;28;20063;-60
2023/02/27 11:17:32;;;;;;;7.72;4.95;;;;;;;5.25;77.98;98457.19;5043299;28;20189;-60
2023/02/27 11:20:00;;;;;;;10.98;4.43;;;;;;;5.39;77.50;98459.56;5067507;28;20107;-60
2023/02/27 11:22:28;;;;;;;8.80;4.80;;;;;;;5.25;78.93;98460.59;5051857;28;20024;-61
2023/02/27 11:25:20;;;;;;;8.00;5.07;;;;;;;5.17;79.27;98462.94;5051144;28;20405;-61
2023/02/27 11:27:47;;;;;;;7.90;4.63;;;;;;;5.25;78.90;98447.69;5041863;28;20464;-60
2023/02/27 11:30:27;;;;;;;6.32;4.32;;;;;;;5.28;78.45;98456.97;5067173;28;20032;-61
2023/02/27 11:32:55;;;;;;;6.97;4.25;;;;;;;5.26;77.85;98453.69;5069863;28;20123;-61
2023/02/27 11:35:33;;;;;;;8.93;5.15;;;;;;;5.20;77.69;98448.06;5044116;28;20024;-61
2023/02/27 11:38:06;;;;;;;8.90;5.05;;;;;;;5.22;76.58;98414.44;5071012;28;20032;-61
2023/02/27 11:40:36;;;;;;;7.97;4.80;;;;;;;5.42;76.50;98454.19;5064766;28;20122;-60
2023/02/27 11:43:04;;;;;;;7.07;4.47;;;;;;;5.39;77.52;98447.47;5041309;28;20050;-61
2023/02/27 11:45:39;;;;;;;7.28;4.75;;;;;;;5.26;77.13;98399.56;5052413;28;20499;-62
2023/02/27 11:48:20;;;;;;;7.85;4.60;;;;;;;5.59;77.07;98432.25;5050842;28;20027;-61
2023/02/27 11:50:57;;;;;;;7.28;4.55;;;;;;;5.35;77.61;98398.84;5051228;28;20032;-61
2023/02/27 11:53:34;;;;;;;7.15;4.57;;;;;;;5.53;78.83;98427.56;5049593;28;20126;-61
2023/02/27 11:56:01;;;;;;;7.78;4.93;;;;;;;5.72;77.77;98426.97;5035321;28;20903;-61
2023/02/27 11:58:30;;;;;;;8.15;4.97;;;;;;;5.77;77.53;98422.28;5027507;28;20227;-61
2023/02/27 12:01:06;;;;;;;7.45;4.95;;;;;;;5.79;77.16;98407.50;5069709;28;20150;-62
2023/02/27 12:04:13;;;;;;;7.53;4.65;;;;;;;5.80;76.87;98416.88;5026501;28;20092;-61
2023/02/27 12:06:55;;;;;;;7.38;5.03;;;;;;;5.80;76.90;98421.22;5056564;28;20051;-61
2023/02/27 12:09:35;;;;;;;6.65;4.63;;;;;;;5.80;76.91;98416.88;5050813;28;20499;-61
2023/02/27 12:12:02;;;;;;;7.85;4.63;;;;;;;5.75;76.38;98406.94;5052451;28;20047;-61
2023/02/27 12:15:14;;;;;;;8.20;4.63;;;;;;;5.83;75.63;98408.91;5063510;28;20668;-60
2023/02/27 12:17:46;;;;;;;7.32;4.75;;;;;;;5.73;76.33;98398.50;4970349;28;20034;-60
2023/02/27 12:20:34;;;;;;;7.18;4.95;;;;;;;5.85;75.13;98404.44;4966800;28;20038;-60
2023/02/27 12:23:01;;;;;;;8.43;4.25;;;;;;;5.91;74.96;98397.97;4975551;28;20497;-62
2023/02/27 12:25:30;;;;;;;7.07;4.45;;;;;;;5.99;74.78;98402.56;4974359;28;20038;-60
2023/02/27 12:28:14;;;;;;;7.18;4.32;;;;;;;5.96;74.38;98403.63;4989685;28;20025;-60
2023/02/27 12:30:49;;;;;;;7.60;4.88;;;;;;;5.79;74.84;98394.59;4991149;28;20117;-60
2023/02/27 12:33:36;;;;;;;7.45;4.45;;;;;;;5.97;74.74;98394.97;4988046;28;20108;-61
2023/02/27 12:36:02;;;;;;;7.20;4.50;;;;;;;5.70;75.21;98360.03;4975990;28;20050;-60
2023/02/27 12:38:28;;;;;;;6.82;4.35;;;;;;;5.83;75.49;98385.69;4958910;28;20034;-60
2023/02/27 12:41:37;;;;;;;6.25;4.07;;;;;;;6.02;74.83;98386.84;4969117;28;20560;-60
2023/02/27 12:44:40;;;;;;;7.55;4.55;;;;;;;6.20;73.38;98385.38;4902129;29;20031;-60
2023/02/27 12:47:38;;;;;;;8.00;4.32;;;;;;;6.03;75.20;98396.25;4984958;28;20029;-60
2023/02/27 12:50:24;;;;;;;7.47;4.63;;;;;;;6.00;73.90;98402.44;5045512;28;20055;-60
2023/02/27 12:53:25;;;;;;;6.82;3.90;;;;;;;5.89;74.26;98381.78;5057781;28;20029;-61
2023/02/27 12:55:56;;;;;;;8.18;4.28;;;;;;;6.03;72.94;98388.50;5057462;28;20020;-60
2023/02/27 12:58:34;;;;;;;7.25;4.22;;;;;;;5.65;73.52;98332.94;5079902;28;20024;-58
2023/02/27 13:01:17;;;;;;;6.65;4.10;;;;;;;5.85;74.92;98383.78;5035403;28;20155;-60
2023/02/27 13:04:00;;;;;;;7.15;4.03;;;;;;;5.77;74.49;98384.41;5058412;28;20176;-60
2023/02/27 13:06:33;;;;;;;7.28;4.18;;;;;;;5.58;74.50;98351.50;5054309;28;20093;-60
2023/02/27 13:09:21;;;;;;;6.30;4.03;;;;;;;5.46;73.59;98293.13;5040306;28;20043;-60
2023/02/27 13:11:58;;;;;;;6.57;4.10;;;;;;;6.02;73.30;98382.50;5052812;28;20035;-60
2023/02/27 13:14:39;;;;;;;6.40;3.95;;;;;;;5.83;73.48;98341.00;5051464;28;20028;-60
2023/02/27 13:17:27;;;;;;;6.03;3.70;;;;;;;5.94;73.89;98375.31;5074602;28;20040;-60
2023/02/27 13:20:28;;;;;;;6.72;3.88;;;;;;;6.06;73.09;98390.81;5050907;28;20158;-60
2023/02/27 13:23:03;;;;;;;6.28;3.85;;;;;;;6.11;73.03;98388.69;5070827;28;20055;-58
2023/02/27 13:25:29;;;;;;;7.15;3.92;;;;;;;5.99;74.05;98387.06;5073921;28;20032;-61
2023/02/27 13:28:00;;;;;;;6.90;3.75;;;;;;;6.03;73.36;98384.16;5053562;28;20025;-60
2023/02/27 13:30:32;;;;;;;8.63;4.22;;;;;;;6.14;71.92;98397.00;5052477;28;20136;-59
2023/02/27 13:33:01;;;;;;;6.18;3.40;;;;;;;5.88;69.96;98380.97;5053643;28;20151;-60
2023/02/27 13:36:10;;;;;;;5.45;2.85;;;;;;;6.08;68.79;98389.78;5082172;28;20558;-60
2023/02/27 13:38:53;;;;;;;6.28;3.53;;;;;;;6.11;70.23;98393.84;5065674;28;20071;-60
2023/02/27 13:41:18;;;;;;;6.28;3.65;;;;;;;5.96;71.47;98393.31;5070130;28;20035;-59
2023/02/27 13:43:45;;;;;;;6.82;3.53;;;;;;;5.93;71.42;98394.34;5066334;28;20020;-60
2023/02/27 13:46:26;;;;;;;5.85;3.53;;;;;;;6.06;70.51;98394.25;5038507;28;20051;-60
2023/02/27 13:49:04;;;;;;;5.63;3.17;;;;;;;6.01;70.87;98401.53;5075021;28;20028;-60
2023/02/27 13:51:36;;;;;;;5.80;3.33;;;;;;;5.89;69.15;98398.09;5051258;28;20035;-60
2023/02/27 13:54:14;;;;;;;7.18;3.08;;;;;;;5.89;70.98;98405.84;5075058;28;20039;-60
2023/02/27 13:56:43;;;;;;;5.15;2.92;;;;;;;5.93;69.49;98398.66;5081879;28;20032;-60
2023/02/27 13:59:18;;;;;;;7.38;2.90;;;;;;;5.91;68.28;98396.25;5060892;28;20528;-61
2023/02/27 14:01:51;;;;;;;6.95;2.60;;;;;;;5.81;68.79;98397.06;5040209;28;20719;-61
2023/02/27 14:04:17;;;;;;;7.30;3.17;;;;;;;5.90;69.06;98398.94;5038008;28;20387;-59
2023/02/27 14:06:44;;;;;;;4.90;2.63;;;;;;;5.99;69.24;98397.41;5054892;28;20798;-60
2023/02/27 14:09:12;;;;;;;5.57;2.95;;;;;;;5.87;69.54;98392.22;5055314;28;20111;-60
2023/02/27 14:11:40;;;;;;;6.10;2.83;;;;;;;5.99;68.78;98392.25;5040046;28;20377;-60
2023/02/27 14:14:30;;;;;;;5.65;2.67;;;;;;;6.01;67.99;98408.44;5055585;28;20039;-61
2023/02/27 14:16:57;;;;;;;5.13;2.58;;;;;;;5.93;68.10;98414.16;5056298;28;20040;-60
2023/02/27 14:19:23;;;;;;;5.65;2.92;;;;;;;5.91;67.86;98414.31;5057103;28;20066;-60
2023/02/27 14:22:02;;;;;;;5.00;2.30;;;;;;;5.81;68.04;98417.72;5058588;28;21006;-60
2023/02/27 14:24:36;;;;;;;5.30;2.60;;;;;;;5.78;68.33;98408.44;5043615;28;20032;-61
2023/02/27 14:27:03;;;;;;;5.00;2.55;;;;;;;5.90;69.18;98422.16;5042705;28;20971;-60
2023/02/27 14:29:32;;;;;;;5.20;2.60;;;;;;;5.64;69.31;98388.88;5051560;28;20031;-60
2023/02/27 14:32:00;;;;;;;5.18;2.47;;;;;;;5.74;69.84;98407.84;5054854;28;20651;-60
2023/02/27 14:34:26;;;;;;;5.85;3.20;;;;;;;5.49;69.88;98384.91;5054220;28;20024;-61
2023/02/27 14:36:54;;;;;;;4.68;2.38;;;;;;;5.71;70.29;98407.28;5057212;28;20051;-61
2023/02/27 14:39:30;;;;;;;5.10;2.78;;;;;;;5.70;70.28;98418.53;5056036;28;20475;-61